Time;durP1;ratioP1;P1;durP2;ratioP2;P2;SDS_P1;SDS_P2;PMS_P1;PMS_P2;Temp;Humidity;BMP_temperature;BMP_pressure;BME280_temperature;BME280_humidity;BME280_pressure;Samples;Min_cycle;Max_cycle;Signal;HPM_P1;HPM_P2
2023/05/12 00:00:43;;;;;;;19.67;13.23;;;13.30;17.00;;;;;;4970311;28;20179;-76
2023/05/12 00:03:08;;;;;;;22.00;13.40;;;13.20;17.80;;;;;;4969063;28;20190;-75
2023/05/12 00:05:34;;;;;;;23.87;14.30;;;13.30;17.50;;;;;;4964839;28;20727;-75
2023/05/12 00:07:59;;;;;;;22.97;14.20;;;13.20;16.90;;;;;;4967862;28;20203;-76
2023/05/12 00:10:27;;;;;;;27.70;14.20;;;13.10;12.90;;;;;;4968059;28;20266;-75
2023/05/12 00:12:54;;;;;;;24.97;14.30;;;13.30;15.20;;;;;;4983739;28;20278;-74
2023/05/12 00:15:20;;;;;;;24.03;14.30;;;13.10;14.90;;;;;;4968587;28;20521;-76
2023/05/12 00:17:45;;;;;;;23.10;13.50;;;13.10;20.00;;;;;;4967125;28;20475;-75
2023/05/12 00:20:11;;;;;;;25.97;13.87;;;13.10;19.50;;;;;;4968117;28;20183;-75
2023/05/12 00:22:38;;;;;;;24.47;14.33;;;13.10;21.30;;;;;;4968771;28;20658;-75
2023/05/12 00:25:04;;;;;;;22.70;13.93;;;13.20;23.40;;;;;;4967056;28;20459;-75
2023/05/12 00:27:30;;;;;;;21.33;14.13;;;13.20;21.90;;;;;;4967713;28;20631;-76
2023/05/12 00:29:57;;;;;;;26.63;14.03;;;13.70;22.60;;;;;;4966058;28;20198;-75
2023/05/12 00:32:23;;;;;;;23.77;13.77;;;13.30;20.40;;;;;;4967015;28;20594;-75
2023/05/12 00:34:49;;;;;;;28.67;14.53;;;13.20;17.40;;;;;;4982826;28;21029;-75
2023/05/12 00:37:15;;;;;;;23.60;14.27;;;13.10;20.20;;;;;;4966229;28;20625;-73
2023/05/12 00:39:41;;;;;;;28.27;14.10;;;13.40;21.50;;;;;;4983723;28;20439;-76
2023/05/12 00:42:07;;;;;;;24.13;14.10;;;13.10;19.30;;;;;;4985510;28;20518;-75
2023/05/12 00:44:32;;;;;;;27.97;14.43;;;13.00;22.90;;;;;;4983334;28;20234;-75
2023/05/12 00:46:58;;;;;;;26.53;13.73;;;13.00;23.80;;;;;;4982234;28;20187;-75
2023/05/12 00:49:26;;;;;;;24.23;14.07;;;13.00;27.20;;;;;;4966149;28;20225;-75
2023/05/12 00:51:54;;;;;;;25.37;14.40;;;13.00;26.80;;;;;;4973406;28;20254;-76
2023/05/12 00:54:20;;;;;;;27.53;13.70;;;13.00;29.60;;;;;;4965698;28;20587;-74
2023/05/12 00:56:46;;;;;;;28.03;14.27;;;13.00;28.70;;;;;;4982586;28;20475;-75
2023/05/12 00:59:12;;;;;;;27.47;14.20;;;13.10;29.20;;;;;;4967188;28;20435;-75
2023/05/12 01:01:37;;;;;;;28.57;14.57;;;13.00;27.80;;;;;;4967418;28;20610;-75
2023/05/12 01:04:03;;;;;;;26.60;13.70;;;13.00;29.30;;;;;;4968312;28;20216;-75
2023/05/12 01:06:51;;;;;;;28.93;13.47;;;13.00;32.10;;;;;;4966052;28;20219;-76
2023/05/12 01:09:18;;;;;;;29.00;14.10;;;12.90;32.30;;;;;;4966246;28;20545;-75
2023/05/12 01:11:43;;;;;;;28.60;14.63;;;13.10;40.40;;;;;;4982112;28;20439;-75
2023/05/12 01:14:09;;;;;;;31.53;15.57;;;13.00;39.20;;;;;;4965306;28;20442;-76
2023/05/12 01:16:38;;;;;;;31.27;15.60;;;13.10;40.40;;;;;;4968504;28;20235;-76
2023/05/12 01:19:13;;;;;;;34.80;16.13;;;13.00;40.30;;;;;;4985520;28;20187;-76
2023/05/12 01:21:39;;;;;;;31.33;15.43;;;13.30;40.60;;;;;;4984022;28;20490;-75
2023/05/12 01:24:07;;;;;;;27.20;14.80;;;13.00;40.40;;;;;;4985348;28;20423;-76
2023/05/12 01:26:33;;;;;;;29.00;15.17;;;13.00;40.40;;;;;;4981761;28;20686;-76
2023/05/12 01:29:01;;;;;;;31.70;15.70;;;13.00;40.40;;;;;;4984882;28;20450;-76
2023/05/12 01:31:27;;;;;;;33.30;16.97;;;13.00;40.40;;;;;;4982702;28;20184;-76
2023/05/12 01:33:53;;;;;;;30.27;15.70;;;13.10;40.50;;;;;;4968866;28;20483;-76
2023/05/12 01:36:18;;;;;;;25.63;15.50;;;13.20;40.60;;;;;;4968002;28;20467;-75
2023/05/12 01:38:44;;;;;;;27.47;15.50;;;13.20;40.70;;;;;;4968800;28;20179;-76
2023/05/12 01:41:09;;;;;;;28.03;15.27;;;13.20;40.60;;;;;;4968179;28;20176;-76
2023/05/12 01:43:35;;;;;;;30.83;14.97;;;13.20;40.50;;;;;;4978099;28;21449;-75
2023/05/12 01:46:00;;;;;;;34.13;15.80;;;13.10;40.40;;;;;;4982836;28;20290;-76
2023/05/12 01:48:26;;;;;;;24.57;14.30;;;13.00;40.50;;;;;;4980078;28;20649;-75
2023/05/12 01:50:51;;;;;;;25.80;14.40;;;13.00;40.50;;;;;;4966263;28;20187;-76
2023/05/12 01:53:17;;;;;;;28.23;13.87;;;13.10;40.50;;;;;;4967187;28;20191;-76
2023/05/12 01:55:43;;;;;;;27.13;14.73;;;13.10;40.60;;;;;;4964246;28;20215;-76
2023/05/12 01:58:08;;;;;;;31.03;16.10;;;13.10;40.60;;;;;;4965597;28;20230;-76
2023/05/12 02:00:34;;;;;;;30.73;16.30;;;13.10;40.50;;;;;;4964249;28;20609;-76
2023/05/12 02:02:59;;;;;;;27.17;15.90;;;13.10;40.40;;;;;;4962176;28;20658;-76
2023/05/12 02:05:25;;;;;;;35.50;17.47;;;13.10;40.60;;;;;;4964426;28;20207;-75
2023/05/12 02:07:51;;;;;;;32.97;17.73;;;13.10;40.60;;;;;;4966861;28;20187;-76
2023/05/12 02:10:16;;;;;;;33.20;17.27;;;13.10;40.50;;;;;;4966475;28;20536;-76
2023/05/12 02:12:42;;;;;;;39.60;17.23;;;13.10;40.50;;;;;;4980473;28;20282;-76
2023/05/12 02:15:08;;;;;;;38.17;16.90;;;13.20;40.70;;;;;;4964307;28;20222;-76
2023/05/12 02:17:33;;;;;;;35.93;17.83;;;13.20;40.70;;;;;;4964357;28;20208;-76
2023/05/12 02:19:59;;;;;;;37.23;17.33;;;13.20;40.60;;;;;;4982874;28;20439;-76
2023/05/12 02:22:25;;;;;;;30.83;16.57;;;13.20;40.70;;;;;;4980860;28;20224;-76
2023/05/12 02:24:50;;;;;;;31.07;16.43;;;13.20;38.50;;;;;;4965150;28;20204;-76
2023/05/12 02:27:16;;;;;;;34.90;17.13;;;13.20;40.80;;;;;;4980339;28;20206;-75
2023/05/12 02:29:41;;;;;;;31.80;17.97;;;13.20;40.70;;;;;;4964784;28;20198;-76
2023/05/12 02:32:07;;;;;;;38.47;18.30;;;13.20;40.60;;;;;;4966872;28;20194;-75
2023/05/12 02:34:33;;;;;;;37.13;17.80;;;13.20;40.60;;;;;;4965156;28;20196;-75
2023/05/12 02:36:58;;;;;;;43.53;19.30;;;13.10;40.70;;;;;;4964997;28;20230;-75
2023/05/12 02:39:24;;;;;;;34.60;19.37;;;13.10;40.60;;;;;;4965495;28;20196;-75
2023/05/12 02:41:49;;;;;;;32.80;18.93;;;13.20;40.70;;;;;;4981744;28;20188;-75
2023/05/12 02:44:16;;;;;;;29.83;18.07;;;13.10;40.60;;;;;;4965616;28;20187;-75
2023/05/12 02:46:42;;;;;;;30.33;18.70;;;13.20;40.60;;;;;;4982384;28;20247;-76
2023/05/12 02:49:07;;;;;;;32.77;18.20;;;13.30;40.70;;;;;;4966721;28;20817;-76
2023/05/12 02:51:33;;;;;;;31.90;17.23;;;13.30;40.70;;;;;;4981056;28;20191;-76
2023/05/12 02:53:58;;;;;;;29.10;14.80;;;13.20;40.60;;;;;;4966512;28;20725;-76
2023/05/12 02:56:24;;;;;;;30.60;16.20;;;13.10;38.40;;;;;;5022728;23;20238;-78
2023/05/12 02:58:50;;;;;;;34.30;16.87;;;13.20;40.80;;;;;;4963233;28;20180;-78
2023/05/12 03:01:16;;;;;;;34.23;17.23;;;13.10;38.50;;;;;;4965353;28;20223;-79
2023/05/12 03:03:41;;;;;;;41.60;17.30;;;13.10;40.50;;;;;;4969065;28;20439;-78
2023/05/12 03:06:07;;;;;;;34.23;16.30;;;13.10;40.50;;;;;;4968245;28;20690;-78
2023/05/12 03:08:32;;;;;;;38.00;16.13;;;13.20;40.90;;;;;;4967654;28;20191;-79
2023/05/12 03:10:58;;;;;;;39.83;15.33;;;13.10;40.80;;;;;;4968620;28;20203;-78
2023/05/12 03:13:24;;;;;;;27.50;13.70;;;13.10;40.50;;;;;;4969059;28;20544;-75
2023/05/12 03:15:49;;;;;;;36.67;15.20;;;13.00;40.50;;;;;;4962594;28;20208;-77
2023/05/12 03:18:15;;;;;;;28.17;14.03;;;13.40;40.80;;;;;;4967574;28;20595;-76
2023/05/12 03:20:40;;;;;;;26.33;13.20;;;13.10;40.60;;;;;;4969843;28;20633;-77
2023/05/12 03:23:06;;;;;;;26.43;14.03;;;13.10;43.30;;;;;;4967958;28;20733;-76
2023/05/12 03:28:07;;;;;;;25.07;12.50;;;13.10;38.40;;;;;;5132133;23;20479;-79
2023/05/12 03:30:32;;;;;;;20.60;12.00;;;13.10;40.70;;;;;;4968424;28;20443;-80
2023/05/12 03:35:34;;;;;;;19.90;10.80;;;13.10;38.40;;;;;;5160363;23;20322;-77
2023/05/12 03:37:59;;;;;;;24.70;12.30;;;13.10;38.40;;;;;;5261474;23;20583;-78
2023/05/12 03:42:59;;;;;;;23.33;11.83;;;13.10;38.40;;;;;;4981197;28;20214;-80
2023/05/12 03:45:25;;;;;;;20.73;11.80;;;13.10;40.70;;;;;;4981051;28;20460;-79
2023/05/12 03:47:50;;;;;;;21.30;11.80;;;13.00;40.60;;;;;;4970139;28;20278;-78
2023/05/12 03:50:16;;;;;;;17.53;11.00;;;13.00;40.50;;;;;;4977063;28;20198;-77
2023/05/12 03:52:42;;;;;;;22.90;13.00;;;13.10;40.70;;;;;;4975210;28;20686;-79
2023/05/12 03:55:08;;;;;;;24.70;13.27;;;13.00;38.40;;;;;;4977448;28;20701;-74
2023/05/12 03:57:35;;;;;;;23.53;13.37;;;13.00;40.70;;;;;;4967034;28;20350;-76
2023/05/12 04:00:01;;;;;;;26.73;13.80;;;12.80;40.50;;;;;;4968502;28;20653;-77
2023/05/12 04:02:26;;;;;;;29.10;14.13;;;13.00;44.60;;;;;;4965103;28;20439;-73
2023/05/12 04:04:52;;;;;;;24.53;12.20;;;13.00;48.10;;;;;;4967916;28;20443;-77
2023/05/12 04:17:40;;;;;;;26.63;14.40;;;13.00;46.70;;;;;;5607478;23;20715;-79
2023/05/12 04:20:06;;;;;;;35.50;18.30;;;13.00;49.70;;;;;;4981072;28;20454;-79
2023/05/12 04:22:32;;;;;;;37.13;17.90;;;12.90;44.90;;;;;;4975044;28;20944;-78
2023/05/12 04:37:55;;;;;;;35.60;16.47;;;13.10;45.10;;;;;;6131812;23;21282;-79
2023/05/12 04:40:21;;;;;;;31.53;15.90;;;13.10;46.80;;;;;;5004720;28;20461;-79
2023/05/12 04:50:27;;;;;;;33.73;16.13;;;13.20;51.70;;;;;;4967277;28;20502;-77
2023/05/12 04:58:03;;;;;;;28.47;14.67;;;13.40;45.00;;;;;;5763740;23;20619;-76
2023/05/12 05:00:29;;;;;;;31.70;15.60;;;13.40;46.00;;;;;;4988103;28;20510;-77
2023/05/12 05:02:54;;;;;;;27.83;15.57;;;13.60;49.20;;;;;;4989466;28;20427;-77
2023/05/12 05:05:20;;;;;;;27.97;14.17;;;13.50;41.10;;;;;;4989042;28;20230;-74
2023/05/12 05:20:44;;;;;;;23.87;13.63;;;13.40;38.70;;;;;;6003505;23;21433;-79
2023/05/12 05:23:10;;;;;;;24.33;13.90;;;13.40;40.90;;;;;;4972423;28;20564;-75
2023/05/12 05:25:36;;;;;;;24.13;14.10;;;13.40;43.40;;;;;;4962678;28;21018;-76
2023/05/12 05:28:01;;;;;;;22.50;12.57;;;13.50;48.50;;;;;;4978301;28;20452;-76
2023/05/12 05:30:27;;;;;;;19.77;11.57;;;13.50;40.90;;;;;;4952124;28;20997;-77
2023/05/12 05:32:53;;;;;;;17.73;11.10;;;13.50;41.00;;;;;;4944241;28;20396;-77
2023/05/12 05:35:18;;;;;;;19.40;12.00;;;13.50;41.00;;;;;;4948180;28;20882;-76
2023/05/12 05:50:41;;;;;;;20.90;11.20;;;13.60;38.70;;;;;;5125736;23;20487;-76
2023/05/12 06:16:12;;;;;;;14.43;9.70;;;14.00;25.70;;;;;;5949422;22;20454;-76
2023/05/12 06:32:14;;;;;;;12.90;9.40;;;14.20;33.60;;;;;;6131595;23;21292;31
2023/05/12 06:34:39;;;;;;;11.20;8.50;;;14.30;24.70;;;;;;5165452;23;20487;-79
2023/05/12 06:44:50;;;;;;;5.97;5.03;;;;;;;;;;5305529;23;21022;-82
2023/05/12 06:47:16;;;;;;;6.93;3.90;;;14.40;14.60;;;;;;5003298;28;20487;-77
2023/05/12 06:49:41;;;;;;;4.93;4.43;;;14.30;1.00;;;;;;5164624;23;21010;-80
2023/05/12 06:54:35;;;;;;;4.40;3.80;;;14.20;1.00;;;;;;5230703;23;20255;-81
2023/05/12 06:57:00;;;;;;;3.77;3.03;;;14.20;1.00;;;;;;5009614;28;20481;-81
2023/05/12 06:59:26;;;;;;;5.07;3.97;;;14.20;1.00;;;;;;5002546;28;20193;-79
2023/05/12 07:07:06;;;;;;;4.17;3.77;;;14.20;1.00;;;;;;5138990;23;20928;-81
2023/05/12 07:09:32;;;;;;;4.27;3.67;;;14.20;1.00;;;;;;4991893;28;20466;-78
2023/05/12 07:11:58;;;;;;;4.77;4.17;;;14.20;1.00;;;;;;5025714;23;20227;-77
2023/05/12 07:19:31;;;;;;;4.83;4.03;;;14.50;1.00;;;;;;5001972;28;20481;-82
2023/05/12 07:21:57;;;;;;;7.70;4.87;;;14.40;1.00;;;;;;5001274;28;20856;-76
2023/05/12 07:24:23;;;;;;;8.40;5.50;;;14.20;1.00;;;;;;5010834;28;20199;-79
2023/05/12 07:26:48;;;;;;;10.10;5.10;;;14.20;1.00;;;;;;4993187;28;20462;-82
2023/05/12 07:29:14;;;;;;;6.07;5.47;;;14.50;1.00;;;;;;5074475;23;20269;-77
2023/05/12 07:31:39;;;;;;;7.90;5.50;;;14.30;1.00;;;;;;5397522;23;20219;-79
2023/05/12 07:34:06;;;;;;;7.60;5.60;;;14.30;1.00;;;;;;4993284;28;20274;-80
2023/05/12 07:36:31;;;;;;;7.80;5.53;;;14.50;1.00;;;;;;4993038;28;20582;-80
2023/05/12 07:38:57;;;;;;;5.67;5.07;;;14.60;1.00;;;;;;5049021;23;20485;-79
2023/05/12 07:41:23;;;;;;;6.83;5.37;;;14.80;1.00;;;;;;4991943;28;20221;-82
2023/05/12 07:43:52;;;;;;;8.47;6.23;;;14.80;1.00;;;;;;5463277;23;20201;-78
2023/05/12 07:46:18;;;;;;;7.00;6.13;;;14.70;1.00;;;;;;5464022;23;20482;-78
2023/05/12 07:48:44;;;;;;;7.50;5.80;;;;;;;;;;5423450;23;20246;-73
2023/05/12 07:51:10;;;;;;;6.93;6.10;;;14.70;1.00;;;;;;5128587;23;20226;-78
2023/05/12 07:53:35;;;;;;;8.10;6.20;;;15.00;1.00;;;;;;5086933;23;20506;-80
2023/05/12 07:56:01;;;;;;;7.23;5.33;;;14.60;1.00;;;;;;5029163;23;1192844;-82
2023/05/12 07:58:27;;;;;;;9.40;5.60;;;14.70;1.00;;;;;;4971477;28;20562;-78
2023/05/12 08:00:53;;;;;;;7.30;5.50;;;14.80;1.00;;;;;;4979427;28;20231;-77
2023/05/12 08:03:19;;;;;;;7.40;5.97;;;14.90;1.00;;;;;;5200996;23;20234;-81
2023/05/12 08:05:45;;;;;;;8.17;7.10;;;14.80;1.00;;;;;;5420240;23;20565;-82
2023/05/12 08:08:15;;;;;;;7.67;5.97;;;14.90;1.00;;;;;;5439132;23;20222;-81
2023/05/12 08:10:41;;;;;;;6.50;5.63;;;14.80;1.00;;;;;;5394437;23;20414;-78
2023/05/12 08:13:07;;;;;;;9.67;6.67;;;15.00;1.00;;;;;;5188239;23;21449;-80
2023/05/12 08:15:32;;;;;;;6.90;5.60;;;15.00;1.00;;;;;;4990690;28;20477;-80
2023/05/12 08:20:38;;;;;;;9.77;6.07;;;15.30;1.00;;;;;;5071664;23;20705;-81
2023/05/12 08:25:33;;;;;;;6.30;5.60;;;16.90;1.00;;;;;;5424338;22;20242;-78
2023/05/12 08:33:11;;;;;;;7.10;6.40;;;17.20;1.00;;;;;;5239121;23;20492;-77
2023/05/12 08:38:05;;;;;;;9.73;7.27;;;17.30;1.00;;;;;;5160776;23;20455;-81
2023/05/12 08:40:36;;;;;;;9.40;6.60;;;17.30;1.00;;;;;;4974157;28;20469;-80
2023/05/12 08:43:24;;;;;;;8.40;6.87;;;17.60;1.00;;;;;;4968045;28;20457;-81
2023/05/12 08:45:58;;;;;;;9.07;7.10;;;17.70;1.00;;;;;;4974573;28;21081;-77
2023/05/12 08:48:26;;;;;;;10.00;7.00;;;17.70;1.00;;;;;;4974515;28;21001;-81
2023/05/12 08:50:54;;;;;;;8.30;7.27;;;17.80;1.00;;;;;;4979941;28;20443;-75
2023/05/12 08:53:23;;;;;;;11.60;7.90;;;17.80;1.00;;;;;;5018034;23;20463;-79
2023/05/12 08:55:50;;;;;;;9.60;6.67;;;17.80;1.00;;;;;;5321692;23;20482;-81
2023/05/12 08:58:16;;;;;;;11.97;7.63;;;18.10;1.00;;;;;;5443728;23;20523;-77
2023/05/12 09:00:43;;;;;;;10.17;7.20;;;19.30;1.00;;;;;;5233586;23;20611;-82
2023/05/12 09:03:12;;;;;;;7.40;6.60;;;18.20;1.00;;;;;;5015974;28;20460;-81
2023/05/12 09:05:39;;;;;;;9.80;6.80;;;17.60;1.00;;;;;;5012240;28;20475;-82
2023/05/12 09:08:05;;;;;;;9.67;7.10;;;17.70;1.00;;;;;;5330221;23;20489;-81
2023/05/12 09:10:31;;;;;;;6.90;6.13;;;18.00;1.00;;;;;;5406321;23;20440;-80
2023/05/12 09:13:27;;;;;;;8.37;6.60;;;18.00;1.00;;;;;;5139016;23;20238;-82
2023/05/12 09:15:55;;;;;;;7.73;6.23;;;18.40;1.00;;;;;;5161199;22;20285;-82
2023/05/12 09:23:31;;;;;;;8.23;6.30;;;18.80;1.00;;;;;;5456780;23;20565;-75
2023/05/12 09:31:17;;;;;;;9.73;6.77;;;18.20;1.00;;;;;;5615702;23;20476;-81
2023/05/12 09:33:43;;;;;;;10.40;6.70;;;18.10;1.00;;;;;;4999056;28;21007;-84
2023/05/12 09:36:09;;;;;;;8.60;6.70;;;18.10;1.00;;;;;;5003731;28;20483;-82
2023/05/12 09:38:34;;;;;;;7.40;6.60;;;17.90;1.00;;;;;;5120263;23;20441;-81
2023/05/12 09:41:02;;;;;;;8.80;6.47;;;17.70;1.00;;;;;;4985631;28;20215;-78
2023/05/12 09:46:06;;;;;;;7.00;6.30;;;17.60;1.00;;;;;;5092903;23;20497;-80
2023/05/12 09:56:18;;;;;;;9.33;7.37;;;18.60;1.00;;;;;;5990103;23;20445;-76
2023/05/12 09:58:46;;;;;;;8.77;7.20;;;18.80;1.00;;;;;;4988508;28;20671;-80
2023/05/12 10:01:13;;;;;;;8.33;6.33;;;18.80;1.00;;;;;;4989745;28;20500;-77
2023/05/12 10:06:19;;;;;;;9.70;6.50;;;19.10;1.00;;;;;;5544510;23;20524;-81
2023/05/12 10:08:53;;;;;;;8.23;6.77;;;18.90;1.00;;;;;;5047996;23;20498;-82
2023/05/12 10:11:21;;;;;;;7.60;6.73;;;18.90;1.00;;;;;;4963300;28;20532;-78
2023/05/12 10:13:47;;;;;;;10.63;7.50;;;18.60;1.00;;;;;;5039575;23;21021;-77
2023/05/12 10:16:13;;;;;;;9.80;6.80;;;;;;;;;;5000603;23;20861;-81
2023/05/12 10:21:13;;;;;;;8.07;6.60;;;;;;;;;;5388358;23;20925;-77
2023/05/12 10:26:15;;;;;;;7.90;6.83;;;18.30;1.00;;;;;;5166537;23;20601;-81
2023/05/12 10:28:41;;;;;;;11.70;6.80;;;18.10;1.00;;;;;;4991441;28;20446;-81
2023/05/12 10:31:08;;;;;;;9.70;6.83;;;18.30;1.00;;;;;;5002482;28;20525;-81
2023/05/12 10:33:34;;;;;;;8.83;7.27;;;18.30;1.00;;;;;;4992563;28;20450;-76
2023/05/12 10:35:59;;;;;;;9.70;6.63;;;18.60;1.00;;;;;;4977842;28;20536;-77
2023/05/12 10:38:25;;;;;;;8.50;7.03;;;19.20;1.00;;;;;;4971769;28;20195;-78
2023/05/12 10:40:57;;;;;;;10.83;6.40;;;20.10;1.00;;;;;;4969674;28;20168;-76
2023/05/12 10:43:40;;;;;;;13.03;7.17;;;20.80;1.00;;;;;;5107778;23;20231;-82
2023/05/12 10:46:09;;;;;;;8.70;6.40;;;21.20;1.00;;;;;;4982844;28;20892;-77
2023/05/12 10:48:37;;;;;;;9.93;6.50;;;21.40;1.00;;;;;;4971568;28;20477;-75
2023/05/12 10:51:09;;;;;;;7.63;5.80;;;21.80;1.00;;;;;;4993805;23;20529;-81
2023/05/12 10:53:37;;;;;;;8.93;6.17;;;21.20;1.00;;;;;;5044509;23;20935;-81
2023/05/12 10:56:04;;;;;;;9.47;6.60;;;21.10;1.00;;;;;;5079979;23;20486;-80
2023/05/12 10:58:30;;;;;;;7.43;5.90;;;21.10;1.00;;;;;;4988005;28;20984;-77
2023/05/12 11:01:05;;;;;;;10.40;6.13;;;21.10;1.00;;;;;;5065800;22;20498;-81
2023/05/12 11:03:33;;;;;;;7.83;6.83;;;20.70;1.00;;;;;;5135734;22;21196;-77
2023/05/12 11:06:02;;;;;;;7.13;6.30;;;20.20;1.00;;;;;;5123112;23;20495;-81
2023/05/12 11:08:30;;;;;;;9.43;6.33;;;20.20;1.00;;;;;;4963666;28;20504;-78
2023/05/12 11:10:56;;;;;;;7.60;5.70;;;19.70;1.00;;;;;;4953525;28;20439;-77
2023/05/12 11:13:21;;;;;;;7.87;6.57;;;18.80;1.00;;;;;;4989980;23;20435;-82
2023/05/12 11:15:47;;;;;;;7.30;5.93;;;18.60;1.00;;;;;;5009190;23;20226;-81
2023/05/12 11:20:49;;;;;;;7.77;5.80;;;18.30;1.00;;;;;;5218397;23;20219;-81
2023/05/12 11:28:15;;;;;;;7.83;6.80;;;18.20;1.00;;;;;;4995378;28;20451;-80
2023/05/12 11:30:53;;;;;;;8.53;6.17;;;18.40;1.00;;;;;;5185479;23;20532;-78
2023/05/12 11:33:23;;;;;;;7.37;6.30;;;18.30;1.00;;;;;;5021563;23;20223;-81
2023/05/12 11:35:49;;;;;;;7.33;6.07;;;18.20;1.00;;;;;;5121129;23;20490;-81
2023/05/12 11:38:16;;;;;;;8.40;6.33;;;18.10;1.00;;;;;;5124182;23;22167;-78
2023/05/12 11:40:42;;;;;;;7.30;6.60;;;18.10;1.00;;;;;;4993536;28;20457;-78
2023/05/12 11:45:44;;;;;;;9.30;7.03;;;18.10;1.00;;;;;;5322100;23;20210;-78
2023/05/12 11:53:17;;;;;;;7.27;6.23;;;18.30;1.00;;;;;;5121996;22;20485;-78
2023/05/12 11:55:54;;;;;;;6.60;5.67;;;18.40;1.00;;;;;;4999342;28;20478;-74
2023/05/12 11:58:25;;;;;;;6.47;5.70;;;18.60;1.00;;;;;;4982687;28;20494;-77
2023/05/12 12:00:52;;;;;;;7.33;6.63;;;18.60;1.00;;;;;;5185790;23;20498;-76
2023/05/12 12:03:17;;;;;;;6.90;5.77;;;18.60;1.00;;;;;;5118513;23;20502;-82
2023/05/12 12:05:55;;;;;;;6.73;5.90;;;18.40;1.00;;;;;;4990342;28;20973;-80
2023/05/12 12:08:21;;;;;;;8.67;5.80;;;18.40;1.00;;;;;;5190079;22;20282;-77
2023/05/12 12:10:46;;;;;;;6.37;5.67;;;18.30;1.00;;;;;;5021484;23;20528;-80
2023/05/12 12:13:20;;;;;;;7.83;5.83;;;18.30;1.00;;;;;;5100345;23;20223;-77
2023/05/12 12:15:46;;;;;;;8.03;6.40;;;18.30;1.00;;;;;;5037958;23;20286;-79
2023/05/12 12:18:12;;;;;;;6.97;5.50;;;18.40;1.00;;;;;;5035494;23;20499;-80
2023/05/12 12:20:37;;;;;;;6.10;5.30;;;18.50;1.00;;;;;;5043994;23;20573;-75
2023/05/12 12:23:03;;;;;;;6.17;5.50;;;18.60;1.00;;;;;;5038623;23;20218;-81
2023/05/12 12:25:30;;;;;;;5.80;5.10;;;18.50;1.00;;;;;;4984973;28;20258;-81
2023/05/12 12:27:56;;;;;;;5.90;4.90;;;18.70;1.00;;;;;;5008733;23;20577;-80
2023/05/12 12:30:22;;;;;;;6.97;5.23;;;18.70;1.00;;;;;;5078620;23;20626;-80
2023/05/12 12:35:23;;;;;;;7.70;6.40;;;18.70;1.00;;;;;;5075403;23;20230;-78
2023/05/12 12:37:50;;;;;;;9.07;7.50;;;18.50;1.00;;;;;;5236718;23;20494;-76
2023/05/12 12:40:17;;;;;;;10.80;7.97;;;18.80;1.00;;;;;;4990797;23;20239;-77
2023/05/12 12:42:43;;;;;;;14.50;8.70;;;18.00;1.00;;;;;;5014763;22;20924;-76
2023/05/12 12:45:09;;;;;;;10.90;7.57;;;17.80;1.00;;;;;;4997909;28;20438;-78
2023/05/12 12:52:41;;;;;;;13.77;8.10;;;17.40;1.00;;;;;;5041582;23;20489;-80
2023/05/12 12:55:07;;;;;;;10.50;7.70;;;17.10;1.00;;;;;;4991969;28;20976;-76
2023/05/12 12:57:33;;;;;;;8.43;7.53;;;17.00;1.00;;;;;;5054166;23;20250;-78
2023/05/12 12:59:59;;;;;;;8.00;7.20;;;16.80;1.00;;;;;;4998881;28;20454;-81
2023/05/12 13:02:24;;;;;;;9.80;7.20;;;16.80;1.00;;;;;;4992053;28;20426;-80
2023/05/12 13:04:50;;;;;;;9.40;6.80;;;16.90;1.00;;;;;;5163351;23;20222;-82
2023/05/12 13:07:16;;;;;;;8.47;7.57;;;17.00;1.00;;;;;;5213344;23;20217;-81
2023/05/12 13:09:41;;;;;;;7.73;6.90;;;17.00;1.00;;;;;;5020440;23;20261;-75
2023/05/12 13:12:07;;;;;;;7.40;6.40;;;17.10;1.00;;;;;;5019554;23;20733;-79
2023/05/12 13:14:39;;;;;;;6.37;5.70;;;17.20;1.00;;;;;;5011399;23;20233;-82
2023/05/12 13:19:38;;;;;;;6.70;5.47;;;17.70;1.00;;;;;;5035113;22;20486;-78
2023/05/12 13:27:15;;;;;;;8.10;5.10;;;18.30;1.00;;;;;;4990239;28;21070;-79
2023/05/12 13:29:41;;;;;;;8.80;5.23;;;18.50;1.00;;;;;;4986551;28;20458;-82
2023/05/12 13:32:07;;;;;;;6.03;5.10;;;18.80;1.00;;;;;;5125794;23;20613;-80
2023/05/12 13:34:32;;;;;;;6.13;4.90;;;19.40;1.00;;;;;;5238133;23;20213;-78
2023/05/12 13:36:58;;;;;;;5.60;4.60;;;;;;;;;;5072390;23;20288;-77
2023/05/12 13:39:24;;;;;;;6.97;4.50;;;20.00;1.00;;;;;;5003660;23;20195;-81
2023/05/12 13:41:50;;;;;;;5.83;4.20;;;20.00;1.00;;;;;;5078473;23;20238;-81
2023/05/12 13:44:15;;;;;;;6.97;4.40;;;20.40;1.00;;;;;;4978200;28;20212;-78
2023/05/12 13:46:41;;;;;;;4.80;4.13;;;20.90;1.00;;;;;;5050168;23;20231;-77
2023/05/12 13:49:07;;;;;;;5.37;4.20;;;22.60;1.00;;;;;;5014957;23;20729;-77
2023/05/12 13:51:40;;;;;;;4.83;3.87;;;20.40;1.00;;;;;;4978201;28;20187;-81
2023/05/12 13:59:15;;;;;;;4.90;3.70;;;;;;;;;;5698881;23;20815;-76
2023/05/12 14:04:13;;;;;;;5.47;3.57;;;;;;;;;;5323598;23;20823;-80
2023/05/12 14:09:09;;;;;;;4.50;3.70;;;21.20;1.00;;;;;;5270926;22;20212;-81
2023/05/12 14:11:34;;;;;;;5.73;4.23;;;21.00;1.00;;;;;;5402627;23;20464;-78
2023/05/12 14:14:02;;;;;;;5.00;3.70;;;;;;;;;;5367971;23;20230;-78
2023/05/12 14:16:46;;;;;;;9.03;3.70;;;20.70;1.00;;;;;;5983124;23;20252;-80
2023/05/12 14:24:16;;;;;;;3.97;2.70;;;20.90;1.00;;;;;;5048123;23;21031;-77
2023/05/12 14:26:42;;;;;;;5.70;3.23;;;20.70;1.00;;;;;;5074461;23;20508;-81
2023/05/12 14:29:08;;;;;;;3.43;2.90;;;20.60;1.00;;;;;;5084329;23;20235;-78
2023/05/12 14:31:33;;;;;;;5.00;3.00;;;20.30;1.00;;;;;;4977550;28;20490;-80
2023/05/12 14:33:59;;;;;;;4.87;2.90;;;20.10;1.00;;;;;;4971641;28;20269;-77
2023/05/12 14:36:25;;;;;;;3.50;2.70;;;19.90;1.00;;;;;;4998316;23;20223;-79
2023/05/12 14:38:50;;;;;;;4.13;2.87;;;20.50;1.00;;;;;;5203459;23;20218;-77
2023/05/12 14:41:16;;;;;;;3.33;2.63;;;19.30;1.00;;;;;;5094850;23;20443;-77
2023/05/12 14:46:15;;;;;;;5.33;2.77;;;19.40;1.00;;;;;;5133554;23;20278;-79
2023/05/12 14:48:41;;;;;;;3.43;2.33;;;19.60;1.00;;;;;;5065242;23;20552;-80
2023/05/12 14:51:07;;;;;;;3.07;2.30;;;19.70;1.00;;;;;;5026610;23;20231;-74
2023/05/12 14:58:47;;;;;;;2.90;2.30;;;19.90;1.00;;;;;;5112621;23;20983;-76
2023/05/12 15:08:51;;;;;;;4.90;2.60;;;19.50;1.00;;;;;;5672426;23;20472;-81
2023/05/12 15:11:17;;;;;;;3.67;2.70;;;19.50;1.00;;;;;;5379524;23;20532;-80
2023/05/12 15:23:53;;;;;;;6.17;2.83;;;19.00;1.00;;;;;;5835535;23;20464;-80
2023/05/12 15:34:05;;;;;;;3.93;2.60;;;19.50;1.00;;;;;;5643668;23;20460;-81
2023/05/12 15:38:58;;;;;;;3.10;2.37;;;19.40;1.00;;;;;;4990737;28;20217;-80
2023/05/12 15:41:24;;;;;;;3.27;2.33;;;;;;;;;;5027893;23;20494;-78
2023/05/12 15:43:50;;;;;;;2.70;2.10;;;19.20;1.00;;;;;;4981242;28;20205;-79
2023/05/12 15:46:16;;;;;;;3.63;2.60;;;19.00;1.00;;;;;;4968401;28;21218;-79
2023/05/12 16:14:35;;;;;;;2.50;2.00;;;18.20;1.00;;;;;;5438375;23;20502;-76
2023/05/12 16:35:21;;;;;;;2.67;1.93;;;17.90;1.00;;;;;;5416719;23;20226;-80
2023/05/12 16:37:47;;;;;;;2.73;1.97;;;17.80;1.00;;;;;;4992898;28;20813;-79
2023/05/12 16:40:14;;;;;;;2.87;2.30;;;17.90;1.00;;;;;;5007429;28;20187;-78
2023/05/12 16:42:39;;;;;;;3.27;1.80;;;17.80;1.00;;;;;;4997706;28;20178;-78
2023/05/12 16:45:06;;;;;;;2.40;1.93;;;17.90;1.00;;;;;;4999107;28;20488;-76
2023/05/12 16:50:07;;;;;;;2.63;2.10;;;18.10;1.00;;;;;;5092020;23;20485;-75
2023/05/12 16:52:33;;;;;;;2.33;1.97;;;18.20;1.00;;;;;;4995948;28;20441;-75
2023/05/12 16:54:59;;;;;;;3.93;1.90;;;18.20;1.00;;;;;;4988597;28;21461;-75
2023/05/12 16:57:25;;;;;;;2.83;2.20;;;18.20;1.00;;;;;;4995573;28;20927;-75
2023/05/12 16:59:50;;;;;;;2.43;2.13;;;18.30;1.00;;;;;;4986689;28;20466;-75
2023/05/12 17:02:16;;;;;;;3.63;2.20;;;18.30;1.00;;;;;;4988182;28;20337;-75
2023/05/12 17:04:42;;;;;;;2.90;2.10;;;18.10;1.00;;;;;;4988425;28;20171;-75
2023/05/12 17:07:08;;;;;;;2.33;1.90;;;18.00;1.00;;;;;;4987435;28;20175;-75
2023/05/12 17:09:34;;;;;;;2.57;2.10;;;17.90;1.00;;;;;;4985815;28;20794;-75
2023/05/12 17:11:59;;;;;;;2.63;1.97;;;17.90;1.00;;;;;;4986830;28;20456;-75
2023/05/12 17:14:25;;;;;;;2.37;2.17;;;17.80;1.00;;;;;;4983666;28;20190;-73
2023/05/12 17:16:51;;;;;;;2.40;2.10;;;17.70;1.00;;;;;;4989284;28;20233;-73
2023/05/12 17:19:16;;;;;;;2.70;2.03;;;17.50;1.00;;;;;;4984603;28;20210;-74
2023/05/12 17:21:42;;;;;;;3.50;2.40;;;17.40;1.00;;;;;;4985801;28;20317;-73
2023/05/12 17:24:08;;;;;;;2.40;2.00;;;17.50;1.00;;;;;;4987700;28;20657;-75
2023/05/12 17:26:34;;;;;;;3.00;2.20;;;17.60;1.00;;;;;;5002399;28;20725;-75
2023/05/12 17:29:00;;;;;;;2.20;2.00;;;17.60;1.00;;;;;;4986551;28;20623;-75
2023/05/12 17:31:26;;;;;;;2.57;1.90;;;17.60;1.00;;;;;;4986581;28;20750;-76
2023/05/12 17:33:52;;;;;;;4.23;2.27;;;17.60;1.00;;;;;;4987808;28;20472;-75
2023/05/12 17:36:17;;;;;;;2.53;2.00;;;17.60;1.00;;;;;;4985537;28;20522;-74
2023/05/12 17:38:43;;;;;;;2.30;2.00;;;17.50;1.00;;;;;;4987204;28;20219;-75
2023/05/12 17:41:08;;;;;;;2.50;1.93;;;17.50;1.00;;;;;;4986707;28;20269;-75